Time;durP1;ratioP1;P1;durP2;ratioP2;P2;SDS_P1;SDS_P2;PMS_P1;PMS_P2;Temp;Humidity;BMP_temperature;BMP_pressure;BME280_temperature;BME280_humidity;BME280_pressure;Samples;Min_cycle;Max_cycle;Signal;HPM_P1;HPM_P2
2021/03/07 00:00:43;;;;;;;1999.90;999.90;;;2.40;99.90;;;;;;5012505;28;20631;-68
2021/03/07 00:03:08;;;;;;;1999.90;999.90;;;2.40;99.90;;;;;;5011713;28;20227;-69
2021/03/07 00:05:34;;;;;;;1999.90;999.90;;;2.40;99.90;;;;;;5011391;28;20291;-68
2021/03/07 00:08:00;;;;;;;1999.90;999.90;;;2.40;99.90;;;;;;5011550;28;20215;-68
2021/03/07 00:10:26;;;;;;;1999.90;999.90;;;2.40;99.90;;;;;;5011886;28;20260;-68
2021/03/07 00:12:51;;;;;;;1999.90;999.90;;;2.40;99.90;;;;;;5011951;28;20193;-68
2021/03/07 00:15:19;;;;;;;1999.90;999.90;;;2.40;99.90;;;;;;5011380;28;20649;-68
2021/03/07 00:17:46;;;;;;;1999.90;999.90;;;2.40;99.90;;;;;;5012574;28;20189;-69
2021/03/07 00:20:13;;;;;;;1999.90;999.90;;;2.40;99.90;;;;;;5014968;28;20195;-69
2021/03/07 00:22:40;;;;;;;1999.90;999.90;;;2.30;99.90;;;;;;5015040;28;20161;-68
2021/03/07 00:25:07;;;;;;;1999.90;999.90;;;2.30;99.90;;;;;;5014632;28;20223;-68
2021/03/07 00:27:33;;;;;;;1999.90;999.90;;;2.20;99.90;;;;;;5015028;28;20240;-69
2021/03/07 00:29:58;;;;;;;1999.90;999.90;;;2.20;99.90;;;;;;5014849;28;20170;-68
2021/03/07 00:32:24;;;;;;;1999.90;999.90;;;2.20;99.90;;;;;;5014853;28;20582;-69
2021/03/07 00:34:50;;;;;;;1999.90;999.90;;;2.10;99.90;;;;;;5014521;28;20173;-69
2021/03/07 00:37:15;;;;;;;1999.90;999.90;;;2.10;99.90;;;;;;5014648;28;20650;-68
2021/03/07 00:39:41;;;;;;;1999.90;999.90;;;2.20;99.90;;;;;;5014791;28;20490;-69
2021/03/07 00:42:07;;;;;;;1999.90;999.90;;;2.20;99.90;;;;;;5014742;28;20192;-68
2021/03/07 00:44:32;;;;;;;1999.90;999.90;;;2.10;99.90;;;;;;5014578;28;20193;-68
2021/03/07 00:46:58;;;;;;;1999.90;999.90;;;2.20;99.90;;;;;;5014617;28;20181;-68
2021/03/07 00:49:27;;;;;;;1999.90;999.90;;;2.20;99.90;;;;;;5014503;28;20216;-68
2021/03/07 00:51:52;;;;;;;1999.90;999.90;;;2.20;99.90;;;;;;5014378;28;20181;-68
2021/03/07 00:54:18;;;;;;;1999.90;999.90;;;2.20;99.90;;;;;;5014564;28;20239;-69
2021/03/07 00:56:44;;;;;;;1999.90;999.90;;;2.20;99.90;;;;;;5014402;28;20427;-68
2021/03/07 00:59:10;;;;;;;1999.90;999.90;;;2.20;99.90;;;;;;5015158;28;20252;-68
2021/03/07 01:01:35;;;;;;;1999.90;999.90;;;2.20;99.90;;;;;;5015382;28;20165;-69
2021/03/07 01:04:01;;;;;;;1999.90;999.90;;;2.10;99.90;;;;;;5016007;28;20211;-69
2021/03/07 01:06:27;;;;;;;1999.90;999.90;;;1.90;99.90;;;;;;5014354;28;20623;-68
2021/03/07 01:08:52;;;;;;;1999.90;999.90;;;1.80;99.90;;;;;;5014202;28;20263;-69
2021/03/07 01:11:19;;;;;;;1999.90;999.90;;;1.90;99.90;;;;;;5014113;28;20161;-69
2021/03/07 01:13:44;;;;;;;1999.90;999.90;;;1.90;99.90;;;;;;5013978;28;20270;-69
2021/03/07 01:16:10;;;;;;;1999.90;999.90;;;1.90;99.90;;;;;;5013677;28;20616;-69
2021/03/07 01:18:37;;;;;;;1999.90;999.90;;;1.90;99.90;;;;;;5013977;28;20245;-68
2021/03/07 01:21:03;;;;;;;1999.90;999.90;;;1.90;99.90;;;;;;5013892;28;20890;-68
2021/03/07 01:23:31;;;;;;;1999.90;999.90;;;1.90;99.90;;;;;;5013820;28;20183;-69
2021/03/07 01:25:57;;;;;;;1999.90;999.90;;;1.90;99.90;;;;;;5013514;28;20166;-69
2021/03/07 01:28:23;;;;;;;1999.90;999.90;;;2.00;99.90;;;;;;5013550;28;20557;-69
2021/03/07 01:30:48;;;;;;;1999.90;999.90;;;1.90;99.90;;;;;;5013783;28;20165;-69
2021/03/07 01:33:14;;;;;;;1999.90;999.90;;;1.80;99.90;;;;;;5013583;28;20399;-68
2021/03/07 01:35:40;;;;;;;1999.90;999.90;;;1.80;99.90;;;;;;5013296;28;20408;-69
2021/03/07 01:38:07;;;;;;;1999.90;999.90;;;1.90;99.90;;;;;;5013459;28;20227;-69
2021/03/07 01:40:34;;;;;;;1999.90;999.90;;;1.70;99.90;;;;;;5013636;28;20204;-69
2021/03/07 01:43:03;;;;;;;1999.90;999.90;;;1.70;99.90;;;;;;5013550;28;20176;-69
2021/03/07 01:45:30;;;;;;;1999.90;999.90;;;1.70;99.90;;;;;;5013109;28;20201;-69
2021/03/07 01:48:00;;;;;;;1999.90;999.90;;;1.70;99.90;;;;;;5013810;28;20227;-69
2021/03/07 01:50:28;;;;;;;1999.90;999.90;;;1.70;99.90;;;;;;5013567;28;20693;-69
2021/03/07 01:52:54;;;;;;;1999.90;999.90;;;1.60;99.90;;;;;;5013637;28;20731;-69
2021/03/07 01:55:26;;;;;;;1999.90;999.90;;;1.60;99.90;;;;;;5013503;28;20184;-69
2021/03/07 01:58:18;;;;;;;1999.90;999.90;;;1.60;99.90;;;;;;5014198;28;20247;-69
2021/03/07 02:00:43;;;;;;;1999.90;999.90;;;1.50;99.90;;;;;;5012387;28;20185;-69
2021/03/07 02:03:09;;;;;;;1999.90;999.90;;;1.50;99.90;;;;;;5013081;28;20169;-69
2021/03/07 02:05:35;;;;;;;1999.90;999.90;;;1.50;99.90;;;;;;5012869;28;20452;-69
2021/03/07 02:08:02;;;;;;;1999.90;999.90;;;1.50;99.90;;;;;;5012834;28;20215;-69
2021/03/07 02:10:30;;;;;;;1999.90;999.90;;;1.40;99.90;;;;;;5012912;28;20260;-69
2021/03/07 02:13:01;;;;;;;1999.90;999.90;;;1.40;99.90;;;;;;5012926;28;20158;-69
2021/03/07 02:15:30;;;;;;;1999.90;999.90;;;1.40;99.90;;;;;;5012592;28;20180;-69
2021/03/07 02:17:56;;;;;;;1999.90;999.90;;;1.50;99.90;;;;;;5012796;28;20206;-69
2021/03/07 02:20:24;;;;;;;1999.90;999.90;;;1.40;99.90;;;;;;5012798;28;20188;-69
2021/03/07 02:22:56;;;;;;;1999.90;999.90;;;1.40;99.90;;;;;;5012767;28;20635;-69
2021/03/07 02:25:23;;;;;;;1999.90;999.90;;;1.30;99.90;;;;;;5012319;28;20196;-68
2021/03/07 02:27:48;;;;;;;1999.90;999.90;;;1.30;99.90;;;;;;5012607;28;20276;-69
2021/03/07 02:30:15;;;;;;;1999.90;999.90;;;1.30;99.90;;;;;;5012670;28;20260;-68
2021/03/07 02:32:49;;;;;;;1999.90;999.90;;;1.30;99.90;;;;;;5012785;28;20169;-68
2021/03/07 02:35:19;;;;;;;1999.90;999.90;;;1.40;99.90;;;;;;5012315;28;20185;-68
2021/03/07 02:37:49;;;;;;;1999.90;999.90;;;1.30;99.90;;;;;;5012542;28;20211;-68
2021/03/07 02:40:18;;;;;;;1999.90;999.90;;;1.10;99.90;;;;;;5012002;28;20627;-68
2021/03/07 02:42:46;;;;;;;1999.90;999.90;;;1.00;99.90;;;;;;5012392;28;20169;-69
2021/03/07 02:45:17;;;;;;;1999.90;999.90;;;0.90;99.90;;;;;;5011967;28;20193;-70
2021/03/07 02:47:46;;;;;;;1999.90;999.90;;;1.00;99.90;;;;;;5012484;28;20239;-69
2021/03/07 02:50:16;;;;;;;1999.90;999.90;;;1.00;99.90;;;;;;5012366;28;20166;-70
2021/03/07 02:52:49;;;;;;;1999.90;999.90;;;1.00;99.90;;;;;;5012328;28;20177;-70
2021/03/07 02:55:17;;;;;;;1999.90;999.90;;;1.00;99.90;;;;;;5011968;28;20184;-68
2021/03/07 02:57:46;;;;;;;1999.90;999.90;;;1.00;99.90;;;;;;5012325;28;20281;-69
2021/03/07 03:00:12;;;;;;;1999.90;999.90;;;1.10;99.90;;;;;;5012139;28;20272;-69
2021/03/07 03:02:40;;;;;;;1999.90;999.90;;;1.10;99.90;;;;;;5012506;28;20195;-69
2021/03/07 03:05:08;;;;;;;1999.90;999.90;;;1.10;99.90;;;;;;5011978;28;20193;-69
2021/03/07 03:07:34;;;;;;;1999.90;999.90;;;1.10;99.90;;;;;;5012275;28;20603;-68
2021/03/07 03:10:04;;;;;;;1999.90;999.90;;;1.00;99.90;;;;;;5012424;28;20260;-69
2021/03/07 03:12:33;;;;;;;1999.90;999.90;;;1.10;99.90;;;;;;5012331;28;20200;-69
2021/03/07 03:14:59;;;;;;;1999.90;999.90;;;1.10;99.90;;;;;;5012222;28;20574;-69
2021/03/07 03:17:25;;;;;;;1999.90;999.90;;;1.10;99.90;;;;;;5012299;28;20201;-69
2021/03/07 03:19:53;;;;;;;1999.90;999.90;;;1.10;99.90;;;;;;5012281;28;20642;-68
2021/03/07 03:22:19;;;;;;;1999.90;999.90;;;1.10;99.90;;;;;;5012176;28;20181;-70
2021/03/07 03:24:46;;;;;;;1999.90;999.90;;;1.00;99.90;;;;;;5011782;28;20739;-69
2021/03/07 03:27:13;;;;;;;1999.90;999.90;;;1.00;99.90;;;;;;5012021;28;20561;-68
2021/03/07 03:29:40;;;;;;;1999.90;999.90;;;1.00;99.90;;;;;;5012056;28;20200;-68
2021/03/07 03:32:06;;;;;;;1999.90;999.90;;;0.90;99.90;;;;;;5012026;28;20206;-68
2021/03/07 03:34:32;;;;;;;1999.90;999.90;;;0.80;99.90;;;;;;5011872;28;20750;-68
2021/03/07 03:36:58;;;;;;;1999.90;999.90;;;0.80;99.90;;;;;;5011797;28;20272;-69
2021/03/07 03:39:26;;;;;;;1999.90;999.90;;;0.80;99.90;;;;;;5012165;28;20177;-69
2021/03/07 03:41:56;;;;;;;1999.90;999.90;;;0.70;99.90;;;;;;5012241;28;20177;-69
2021/03/07 03:44:27;;;;;;;1999.90;999.90;;;0.70;99.90;;;;;;5012182;28;20574;-69
2021/03/07 03:46:58;;;;;;;1999.90;999.90;;;0.50;99.90;;;;;;5011728;28;20180;-69
2021/03/07 03:49:48;;;;;;;1999.90;999.90;;;0.40;99.90;;;;;;5011966;28;20200;-69
2021/03/07 03:52:14;;;;;;;1999.90;999.90;;;0.40;99.90;;;;;;5012458;28;20165;-69
2021/03/07 03:54:58;;;;;;;1999.90;999.90;;;0.30;99.90;;;;;;5015867;28;20169;-69
2021/03/07 03:57:31;;;;;;;1999.90;999.90;;;0.20;99.90;;;;;;5016106;28;20204;-69
2021/03/07 03:59:59;;;;;;;1999.90;999.90;;;0.10;99.90;;;;;;5016056;28;20174;-69
2021/03/07 04:02:28;;;;;;;1999.90;999.90;;;0.20;99.90;;;;;;5015635;28;20264;-70
2021/03/07 04:04:56;;;;;;;1999.90;999.90;;;0.20;99.90;;;;;;5014969;28;20228;-69
2021/03/07 04:07:25;;;;;;;1999.90;999.90;;;0.20;99.90;;;;;;5015038;28;20201;-69
2021/03/07 04:09:53;;;;;;;1999.90;999.90;;;0.20;99.90;;;;;;5015243;28;20530;-69
2021/03/07 04:12:20;;;;;;;1999.90;999.90;;;0.30;99.90;;;;;;5015530;28;20623;-69
2021/03/07 04:14:46;;;;;;;1999.90;999.90;;;0.20;99.90;;;;;;5015103;28;20188;-69
2021/03/07 04:17:14;;;;;;;1999.90;999.90;;;0.30;99.90;;;;;;5015350;28;20189;-69
2021/03/07 04:19:40;;;;;;;1999.90;999.90;;;0.30;99.90;;;;;;5015099;28;20411;-69
2021/03/07 04:22:06;;;;;;;1999.90;999.90;;;0.30;99.90;;;;;;5014251;28;20226;-70
2021/03/07 04:24:32;;;;;;;1999.90;999.90;;;0.20;99.90;;;;;;5014874;28;20196;-69
2021/03/07 04:26:58;;;;;;;1999.90;999.90;;;0.20;99.90;;;;;;5014647;28;20208;-68
2021/03/07 04:29:25;;;;;;;1999.90;999.90;;;0.10;99.90;;;;;;5014849;28;20173;-68
2021/03/07 04:31:52;;;;;;;1999.90;999.90;;;0.00;99.90;;;;;;5014792;28;20415;-69
2021/03/07 04:34:18;;;;;;;1999.90;999.90;;;0.00;99.90;;;;;;5014835;28;20180;-69
2021/03/07 04:36:45;;;;;;;1999.90;999.90;;;-0.10;99.90;;;;;;5014425;28;20574;-68
2021/03/07 04:39:10;;;;;;;1999.90;999.90;;;0.00;99.90;;;;;;5014749;28;20181;-69
2021/03/07 04:41:36;;;;;;;1999.90;999.90;;;0.00;99.90;;;;;;5014708;28;20626;-69
2021/03/07 04:44:02;;;;;;;1999.90;999.90;;;-0.20;99.90;;;;;;5014801;28;20443;-69
2021/03/07 04:46:28;;;;;;;1999.90;999.90;;;-0.20;99.90;;;;;;5014227;28;20173;-69
2021/03/07 04:48:55;;;;;;;1999.90;999.90;;;-0.20;99.90;;;;;;5014561;28;20165;-69
2021/03/07 04:51:22;;;;;;;1999.90;999.90;;;-0.20;99.90;;;;;;5014580;28;20784;-68
2021/03/07 04:53:47;;;;;;;1999.90;999.90;;;-0.10;99.90;;;;;;5014499;28;20177;-69
2021/03/07 04:56:14;;;;;;;1999.90;999.90;;;-0.30;99.90;;;;;;5014049;28;20173;-69
2021/03/07 04:58:40;;;;;;;1999.90;999.90;;;-0.30;99.90;;;;;;5014310;28;20207;-69
2021/03/07 05:01:06;;;;;;;1999.90;999.90;;;-0.30;99.90;;;;;;5014299;28;20201;-69
2021/03/07 05:03:33;;;;;;;1999.90;999.90;;;-0.30;99.90;;;;;;5013723;28;20487;-69
2021/03/07 05:05:59;;;;;;;1999.90;999.90;;;-0.40;99.90;;;;;;5013941;28;20177;-70
2021/03/07 05:08:25;;;;;;;1999.90;999.90;;;-0.40;99.90;;;;;;5055028;22;20709;-70
2021/03/07 05:10:52;;;;;;;1999.90;999.90;;;-0.40;99.90;;;;;;5014561;28;20169;-70
2021/03/07 05:13:18;;;;;;;1999.90;999.90;;;-0.40;99.90;;;;;;5014717;28;20173;-70
2021/03/07 05:15:43;;;;;;;1999.90;999.90;;;-0.50;99.90;;;;;;5014363;28;20226;-72
2021/03/07 05:18:09;;;;;;;1999.90;999.90;;;-0.50;99.90;;;;;;5013970;28;20561;-71
2021/03/07 05:20:34;;;;;;;1999.90;999.90;;;-0.50;99.90;;;;;;5013973;28;20165;-71
2021/03/07 05:23:00;;;;;;;1999.90;999.90;;;-0.50;99.90;;;;;;5013852;28;20176;-71
2021/03/07 05:25:26;;;;;;;1999.90;999.90;;;-0.50;99.90;;;;;;5012250;28;20251;-71
2021/03/07 05:27:52;;;;;;;1999.90;999.90;;;-0.50;99.90;;;;;;5013756;28;20185;-71
2021/03/07 05:30:18;;;;;;;1999.90;999.90;;;-0.60;99.90;;;;;;5014054;28;20167;-71
2021/03/07 05:32:43;;;;;;;1999.90;999.90;;;-0.60;99.90;;;;;;5013804;28;20174;-72
2021/03/07 05:35:09;;;;;;;1999.90;999.90;;;-0.60;99.90;;;;;;5013551;28;20173;-71
2021/03/07 05:37:35;;;;;;;1999.90;999.90;;;-0.70;99.90;;;;;;5013601;28;20189;-71
2021/03/07 05:40:01;;;;;;;1999.90;999.90;;;-0.80;99.90;;;;;;5012479;28;20204;-71
2021/03/07 05:42:29;;;;;;;1999.90;999.90;;;-0.80;99.90;;;;;;5013608;28;20181;-71
2021/03/07 05:44:55;;;;;;;1999.90;999.90;;;-0.80;99.90;;;;;;5013283;28;20638;-71
2021/03/07 05:47:20;;;;;;;1999.90;999.90;;;-0.80;99.90;;;;;;5013468;28;20224;-72
2021/03/07 05:49:46;;;;;;;1999.90;999.90;;;-0.90;99.90;;;;;;5013422;28;20173;-71
2021/03/07 05:52:13;;;;;;;1999.90;999.90;;;-0.90;99.90;;;;;;5013677;28;20165;-71
2021/03/07 05:54:38;;;;;;;1999.90;999.90;;;-0.80;99.90;;;;;;5013772;28;20165;-71
2021/03/07 05:57:06;;;;;;;1999.90;999.90;;;-0.90;99.90;;;;;;5013313;28;20197;-71
2021/03/07 05:59:35;;;;;;;1999.90;999.90;;;-0.90;99.90;;;;;;5013650;28;20408;-72
2021/03/07 06:02:02;;;;;;;1999.90;999.90;;;-0.90;99.90;;;;;;5013340;28;20200;-71
2021/03/07 06:04:28;;;;;;;1999.90;999.90;;;-1.00;99.90;;;;;;5012754;28;20693;-71
2021/03/07 06:06:54;;;;;;;1999.90;999.90;;;-1.00;99.90;;;;;;5012851;28;20173;-72
2021/03/07 06:09:28;;;;;;;1999.90;999.90;;;-1.00;99.90;;;;;;5013341;28;20411;-72
2021/03/07 06:11:56;;;;;;;1999.90;999.90;;;-1.10;99.90;;;;;;5013066;28;20935;-71
2021/03/07 06:14:24;;;;;;;1999.90;999.90;;;-1.10;99.90;;;;;;5012973;28;20608;-72
2021/03/07 06:17:09;;;;;;;1999.90;999.90;;;-1.10;99.90;;;;;;5012182;28;20180;-71
2021/03/07 06:19:53;;;;;;;1999.90;999.90;;;-1.10;99.90;;;;;;5012922;28;20196;-72
2021/03/07 06:22:19;;;;;;;1999.90;999.90;;;-1.10;99.90;;;;;;5012833;28;20197;-72
2021/03/07 06:24:44;;;;;;;1999.90;999.90;;;-1.10;99.90;;;;;;5012535;28;20248;-72
2021/03/07 06:27:12;;;;;;;1999.90;999.90;;;-1.00;99.90;;;;;;5012741;28;20195;-70
2021/03/07 06:29:57;;;;;;;1999.90;999.90;;;-1.10;99.90;;;;;;5011890;28;20264;-70
2021/03/07 06:32:26;;;;;;;1999.90;999.90;;;-1.10;99.90;;;;;;5013373;28;20177;-71
2021/03/07 06:34:52;;;;;;;1999.90;999.90;;;-1.00;99.90;;;;;;5012821;28;20176;-71
2021/03/07 06:37:18;;;;;;;1999.90;999.90;;;-1.00;99.90;;;;;;5013099;28;20227;-71
2021/03/07 06:39:44;;;;;;;1999.90;999.90;;;-1.00;99.90;;;;;;5013352;28;20222;-71
2021/03/07 06:42:11;;;;;;;1999.90;999.90;;;-0.90;99.90;;;;;;5013343;28;20408;-71
2021/03/07 06:44:38;;;;;;;1999.90;999.90;;;-0.90;99.90;;;;;;5012321;28;20197;-72
2021/03/07 06:47:10;;;;;;;1999.90;999.90;;;-0.80;99.90;;;;;;5012162;28;20703;-71
2021/03/07 06:49:36;;;;;;;1999.90;999.90;;;-0.80;99.90;;;;;;5012394;28;20172;-71
2021/03/07 06:52:19;;;;;;;1999.90;999.90;;;-0.70;99.90;;;;;;5012565;28;20627;-71
2021/03/07 06:55:04;;;;;;;1999.90;999.90;;;-0.60;99.90;;;;;;5013147;28;20408;-71
2021/03/07 06:57:30;;;;;;;1999.90;999.90;;;-0.50;99.90;;;;;;5013001;28;20276;-71
2021/03/07 06:59:56;;;;;;;1999.90;999.90;;;-0.50;99.90;;;;;;5013110;28;20879;-71
2021/03/07 07:02:22;;;;;;;1999.90;999.90;;;-0.40;99.90;;;;;;5011284;28;20173;-72
2021/03/07 07:04:48;;;;;;;1999.90;999.90;;;-0.40;99.90;;;;;;5011853;28;20564;-72
2021/03/07 07:07:19;;;;;;;1999.90;999.90;;;-0.40;99.90;;;;;;5012282;28;20196;-72
2021/03/07 07:09:46;;;;;;;1999.90;999.90;;;-0.20;99.90;;;;;;5012340;28;20169;-71
2021/03/07 07:12:21;;;;;;;1999.90;999.90;;;-0.20;99.90;;;;;;5012385;28;20541;-72
2021/03/07 07:14:48;;;;;;;1999.90;999.90;;;-0.30;99.90;;;;;;5012032;28;20215;-72
2021/03/07 07:17:19;;;;;;;1999.90;999.90;;;-0.30;99.90;;;;;;5011221;28;20682;-71
2021/03/07 07:19:46;;;;;;;1999.90;999.90;;;-0.20;99.90;;;;;;5012062;28;20165;-71
2021/03/07 07:22:16;;;;;;;1999.90;999.90;;;-0.10;99.90;;;;;;5012091;28;20179;-71
2021/03/07 07:24:44;;;;;;;1999.90;999.90;;;-0.20;99.90;;;;;;5010540;28;20216;-71
2021/03/07 07:27:10;;;;;;;1999.90;999.90;;;-0.10;99.90;;;;;;5013782;28;20189;-71
2021/03/07 07:29:37;;;;;;;1999.90;999.90;;;0.00;99.90;;;;;;5016132;28;20256;-72
2021/03/07 07:32:04;;;;;;;1999.90;999.90;;;0.10;99.90;;;;;;5016211;28;20173;-72
2021/03/07 07:34:42;;;;;;;1999.90;999.90;;;0.10;99.90;;;;;;5016119;28;20169;-71
2021/03/07 07:37:25;;;;;;;1999.90;999.90;;;0.20;99.90;;;;;;5016659;28;20196;-71
2021/03/07 07:39:54;;;;;;;1999.90;999.90;;;0.30;99.90;;;;;;5015145;28;20164;-71
2021/03/07 07:42:28;;;;;;;1999.90;999.90;;;0.30;99.90;;;;;;5016198;28;20185;-71
2021/03/07 07:44:56;;;;;;;1999.90;999.90;;;0.40;99.90;;;;;;5016358;28;20669;-71
2021/03/07 07:47:22;;;;;;;1999.90;999.90;;;0.50;99.90;;;;;;5016289;28;20592;-71
2021/03/07 07:49:48;;;;;;;1999.90;999.90;;;0.40;99.90;;;;;;5016258;28;20158;-71
2021/03/07 07:52:26;;;;;;;1999.90;999.90;;;0.40;99.90;;;;;;5015265;28;20169;-70
2021/03/07 07:54:54;;;;;;;1999.90;999.90;;;0.30;99.90;;;;;;5015821;28;20165;-71
2021/03/07 07:57:45;;;;;;;1999.90;999.90;;;0.20;99.90;;;;;;5014939;28;20237;-71
2021/03/07 08:00:15;;;;;;;1999.90;999.90;;;0.00;99.90;;;;;;5015828;28;20204;-71
2021/03/07 08:02:44;;;;;;;1999.90;999.90;;;0.00;99.90;;;;;;5015376;28;20185;-71
2021/03/07 08:05:26;;;;;;;1999.90;999.90;;;0.00;99.90;;;;;;5015023;28;20276;-71
2021/03/07 08:07:56;;;;;;;1999.90;999.90;;;0.00;99.90;;;;;;5015102;28;20204;-71
2021/03/07 08:10:39;;;;;;;1999.90;999.90;;;0.00;99.90;;;;;;5015250;28;20161;-71
2021/03/07 08:13:15;;;;;;;1999.90;999.90;;;0.10;99.90;;;;;;5015151;28;20165;-71
2021/03/07 08:15:48;;;;;;;1999.90;999.90;;;0.20;99.90;;;;;;5014951;28;20180;-72
2021/03/07 08:18:17;;;;;;;1999.90;999.90;;;0.20;99.90;;;;;;5015084;28;20681;-72
2021/03/07 08:20:44;;;;;;;1999.90;999.90;;;0.10;99.90;;;;;;5015180;28;20523;-71
2021/03/07 08:23:15;;;;;;;1999.90;999.90;;;0.10;99.90;;;;;;5015730;28;20173;-70
2021/03/07 08:25:46;;;;;;;1999.90;999.90;;;0.10;99.90;;;;;;5015331;28;20581;-70
2021/03/07 08:28:27;;;;;;;1999.90;999.90;;;0.20;99.90;;;;;;5014957;28;20283;-72
2021/03/07 08:30:56;;;;;;;1999.90;999.90;;;0.20;99.90;;;;;;5014876;28;20165;-72
2021/03/07 08:33:30;;;;;;;1999.90;999.90;;;0.30;99.90;;;;;;5014785;28;20790;-71
2021/03/07 08:36:17;;;;;;;1999.90;999.90;;;0.40;99.90;;;;;;5014707;28;20188;-72
2021/03/07 08:38:51;;;;;;;1999.90;999.90;;;0.70;99.90;;;;;;5014214;28;20231;-72
2021/03/07 08:41:18;;;;;;;1999.90;999.90;;;0.90;99.90;;;;;;5014693;28;20177;-72
2021/03/07 08:43:46;;;;;;;1999.90;999.90;;;1.20;99.90;;;;;;5014567;28;20176;-71
2021/03/07 08:46:13;;;;;;;1999.90;999.90;;;1.40;99.90;;;;;;5014371;28;20231;-71
2021/03/07 08:48:42;;;;;;;1999.90;999.90;;;1.50;99.90;;;;;;5014508;28;20189;-72
2021/03/07 08:51:10;;;;;;;1999.90;999.90;;;1.60;99.90;;;;;;5009731;28;20161;-72
2021/03/07 08:53:38;;;;;;;1999.90;999.90;;;1.80;99.90;;;;;;5012987;28;20188;-71
2021/03/07 08:56:05;;;;;;;1999.90;999.90;;;2.00;99.90;;;;;;5012873;28;20631;-72
2021/03/07 08:58:31;;;;;;;1999.90;999.90;;;2.10;99.90;;;;;;5012681;28;20674;-72
2021/03/07 09:00:58;;;;;;;1999.90;999.90;;;2.20;99.90;;;;;;5012999;28;20171;-72
2021/03/07 09:03:25;;;;;;;1999.90;999.90;;;2.20;99.90;;;;;;5012971;28;20561;-72
2021/03/07 09:05:52;;;;;;;1999.90;999.90;;;2.30;99.90;;;;;;5012229;28;20196;-72
2021/03/07 09:08:22;;;;;;;1999.90;999.90;;;2.30;99.90;;;;;;5012961;28;20207;-72
2021/03/07 09:10:51;;;;;;;1999.90;999.90;;;2.10;99.90;;;;;;5012992;28;20169;-72
2021/03/07 09:13:22;;;;;;;1999.90;999.90;;;2.20;99.90;;;;;;5012630;28;20173;-72
2021/03/07 09:15:55;;;;;;;1999.90;999.90;;;2.30;99.90;;;;;;5013036;28;20227;-71
2021/03/07 09:18:35;;;;;;;1999.90;999.90;;;2.50;99.90;;;;;;5013327;28;20196;-72
2021/03/07 09:21:06;;;;;;;1999.90;999.90;;;2.60;99.90;;;;;;5012954;28;20654;-72
2021/03/07 09:23:42;;;;;;;1999.90;999.90;;;2.70;99.90;;;;;;5011371;28;20268;-72
2021/03/07 09:26:14;;;;;;;1999.90;999.90;;;2.80;99.90;;;;;;5012448;28;20163;-72
2021/03/07 09:28:44;;;;;;;1999.90;999.90;;;3.00;99.90;;;;;;5012292;28;20191;-71
2021/03/07 09:31:17;;;;;;;1999.90;999.90;;;2.90;99.90;;;;;;5012559;28;20173;-71
2021/03/07 09:33:50;;;;;;;1999.90;999.90;;;2.90;99.90;;;;;;5013169;28;20185;-71
2021/03/07 09:36:17;;;;;;;1999.90;999.90;;;3.00;99.90;;;;;;5012796;28;20181;-71
2021/03/07 09:38:54;;;;;;;1999.90;999.90;;;3.00;99.90;;;;;;5008233;28;20189;-75
2021/03/07 09:41:41;;;;;;;1999.90;999.90;;;3.10;99.90;;;;;;4994106;28;20181;-75
2021/03/07 09:44:18;;;;;;;1999.90;999.90;;;3.20;99.90;;;;;;4992460;28;20197;-74
2021/03/07 09:46:45;;;;;;;1999.90;999.90;;;3.20;99.90;;;;;;4991480;28;20173;-73
2021/03/07 09:49:15;;;;;;;1999.90;999.90;;;3.40;99.90;;;;;;4991257;28;20170;-72
2021/03/07 09:51:43;;;;;;;1999.90;999.90;;;3.40;99.90;;;;;;4992221;28;20169;-71
2021/03/07 09:54:11;;;;;;;1999.90;999.90;;;3.40;99.90;;;;;;4991962;28;20643;-73
2021/03/07 09:56:38;;;;;;;1999.90;999.90;;;3.30;99.90;;;;;;4991031;28;20189;-70
2021/03/07 09:59:18;;;;;;;1999.90;999.90;;;3.20;99.90;;;;;;4991808;28;20198;-75
2021/03/07 10:01:50;;;;;;;1999.90;999.90;;;3.50;99.90;;;;;;4992119;28;20845;-72
2021/03/07 10:04:25;;;;;;;1999.90;999.90;;;3.80;99.90;;;;;;4991412;28;20198;-74
2021/03/07 10:06:51;;;;;;;1999.90;999.90;;;4.00;99.90;;;;;;4991259;28;20631;-73
2021/03/07 10:09:16;;;;;;;1999.90;999.90;;;4.10;99.90;;;;;;4991812;28;20220;-72
2021/03/07 10:11:54;;;;;;;1999.90;999.90;;;4.20;99.90;;;;;;4991456;28;20421;-71
2021/03/07 10:14:24;;;;;;;1999.90;999.90;;;4.20;99.90;;;;;;4991674;28;20209;-72
2021/03/07 10:16:53;;;;;;;1999.90;999.90;;;4.30;99.90;;;;;;4990973;28;20181;-72
2021/03/07 10:19:19;;;;;;;1999.90;999.90;;;4.50;99.90;;;;;;4991034;28;20400;-72
2021/03/07 10:21:45;;;;;;;1999.90;999.90;;;4.60;99.90;;;;;;4991605;28;20400;-72
2021/03/07 10:24:18;;;;;;;1999.90;999.90;;;4.60;99.90;;;;;;4991482;28;20488;-73
2021/03/07 10:26:49;;;;;;;1999.90;999.90;;;4.40;99.90;;;;;;4990731;28;20417;-72
2021/03/07 10:29:30;;;;;;;1999.90;999.90;;;4.70;99.90;;;;;;4991872;28;20442;-71
2021/03/07 10:32:02;;;;;;;1999.90;999.90;;;4.90;99.90;;;;;;4991889;28;20480;-73
2021/03/07 10:34:36;;;;;;;1999.90;999.90;;;5.20;99.90;;;;;;4990776;28;20401;-72
2021/03/07 10:37:03;;;;;;;1999.90;999.90;;;5.20;99.90;;;;;;4990830;28;20443;-73
2021/03/07 10:39:28;;;;;;;1999.90;999.90;;;5.20;99.90;;;;;;4991032;28;20966;-72
2021/03/07 10:42:31;;;;;;;1999.90;999.90;;;5.10;99.90;;;;;;4990970;28;20409;-76
2021/03/07 10:45:11;;;;;;;1999.90;999.90;;;5.40;99.90;;;;;;4959463;28;21211;-74
2021/03/07 10:47:37;;;;;;;1999.90;999.90;;;5.80;99.90;;;;;;4990879;28;20200;-79
2021/03/07 10:50:04;;;;;;;1999.90;999.90;;;6.10;99.90;;;;;;4991047;28;20413;-73
2021/03/07 10:52:30;;;;;;;1999.90;999.90;;;6.30;99.90;;;;;;4990957;28;20181;-74
2021/03/07 10:54:55;;;;;;;1999.90;999.90;;;6.40;99.90;;;;;;4990383;28;20413;-74
2021/03/07 10:57:21;;;;;;;1999.90;999.90;;;6.70;99.90;;;;;;4990154;28;20202;-74
2021/03/07 10:59:51;;;;;;;1999.90;999.90;;;6.50;99.90;;;;;;4990699;28;20173;-74
2021/03/07 11:02:18;;;;;;;1999.90;999.90;;;6.40;99.90;;;;;;4990780;28;20174;-73
2021/03/07 11:04:46;;;;;;;1999.90;999.90;;;6.30;99.90;;;;;;4990205;28;20484;-72
2021/03/07 11:07:12;;;;;;;1999.90;999.90;;;6.10;99.90;;;;;;4990405;28;20808;-73
2021/03/07 11:09:39;;;;;;;1999.90;999.90;;;6.20;99.90;;;;;;4991823;28;20401;-72
2021/03/07 11:12:09;;;;;;;1999.90;999.90;;;6.60;99.90;;;;;;5024208;28;20491;-76
2021/03/07 11:14:34;;;;;;;1999.90;999.90;;;6.40;99.90;;;;;;5020829;28;20422;-74
2021/03/07 11:17:00;;;;;;;1999.90;999.90;;;6.30;99.90;;;;;;5021099;28;20418;-73
2021/03/07 11:19:25;;;;;;;1999.90;999.90;;;6.60;99.90;;;;;;5026676;28;20188;-74
2021/03/07 11:21:51;;;;;;;1999.90;999.90;;;7.00;99.90;;;;;;5022446;28;20255;-73
2021/03/07 11:24:17;;;;;;;1999.90;999.90;;;6.90;99.90;;;;;;5030153;28;20680;-74
2021/03/07 11:26:43;;;;;;;1999.90;999.90;;;7.10;99.90;;;;;;5028112;28;20193;-76
2021/03/07 11:29:09;;;;;;;1999.90;999.90;;;7.40;99.90;;;;;;5022081;28;20427;-75
2021/03/07 11:31:35;;;;;;;1999.90;999.90;;;7.70;99.90;;;;;;5029841;28;20179;-75
2021/03/07 11:34:01;;;;;;;1999.90;999.90;;;7.90;99.90;;;;;;5031076;28;20441;-75
2021/03/07 11:36:26;;;;;;;1999.90;999.90;;;8.00;99.90;;;;;;5030009;28;20443;-75
2021/03/07 11:38:52;;;;;;;1999.90;999.90;;;8.10;99.90;;;;;;5030170;28;20184;-73
2021/03/07 11:41:17;;;;;;;1999.90;999.90;;;8.20;99.90;;;;;;5029691;28;20172;-76
2021/03/07 11:43:43;;;;;;;1999.90;999.90;;;8.40;99.90;;;;;;5029311;28;20170;-76
2021/03/07 11:46:08;;;;;;;1999.90;999.90;;;8.70;99.90;;;;;;5024970;28;20253;-74
2021/03/07 11:48:34;;;;;;;1999.90;999.90;;;8.90;99.90;;;;;;5028438;28;20847;-70
2021/03/07 11:51:00;;;;;;;1999.90;999.90;;;9.40;99.90;;;;;;5029931;28;20226;-70
2021/03/07 11:53:25;;;;;;;1999.90;999.90;;;10.00;99.90;;;;;;5029824;28;20653;-70
2021/03/07 11:55:51;;;;;;;1999.90;999.90;;;10.70;99.90;;;;;;5028832;28;20187;-70
2021/03/07 11:58:17;;;;;;;1999.90;999.90;;;11.40;99.90;;;;;;5029351;28;20267;-70
2021/03/07 12:00:42;;;;;;;1999.90;999.90;;;12.10;99.90;;;;;;5029738;28;20302;-69
2021/03/07 12:03:08;;;;;;;1999.90;999.90;;;12.90;99.90;;;;;;5029427;28;20198;-69
2021/03/07 12:05:34;;;;;;;1999.90;999.90;;;13.20;99.90;;;;;;5029219;28;20197;-69
2021/03/07 12:07:59;;;;;;;1999.90;999.90;;;13.80;99.90;;;;;;5029040;28;20209;-69
2021/03/07 12:10:26;;;;;;;1999.90;999.90;;;14.30;99.90;;;;;;5029152;28;20677;-69
2021/03/07 12:12:52;;;;;;;1999.90;999.90;;;14.50;99.90;;;;;;5029663;28;20298;-69